Airfield :
LOGIN :

Register | Disclaimer

   EN    FR    IT 

 










Legend :    VFR   Marginal VFR   IFR   Intensive IFR   Very Intensive IFR
Visi :
Ceiling :
>= 8 km
>= 3000ft
5 to 8 km
1000 to 3000 ft
1500m to 5 km
500 to 1000 ft
800 to 1500m
200 to 500 ft
< 800m
< 200 ft
Symbols :   Thunderstorms  Fog  Heavy snow  Heavy precipitations  Wind > 20 kt
SIGMETs :     Misc.  Thunderstorms  Icing  Turbulence  Mountain Waves  Volcanic Ashes







- Airport Elevation : 526 ft
- IATA code : LTN
- Download approach charts


EGGW - London Luton

CURRENT METAR :
  • 151550Z AUTO 33014KT 9999 BKN017 04/02 Q1002

EXPIRED METARs :
  • 151520Z AUTO 33013KT 9999 BKN017 04/02 Q1001
  • 151450Z AUTO 33014KT 9999 SCT017 04/02 Q1001
  • 151420Z 33016KT 9999 SCT019 04/02 Q1000
  • 151350Z 33018KT 9999 SCT016 SCT046 04/02 Q0999
  • 151320Z 33016KT 9999 BKN015 04/02 Q0999
  • 151250Z 33015KT 9999 SCT014 04/02 Q0998

TAF TAF EGGW
Valid from the 15 at 12:00 until the 16 at 12:00 UTC


151059Z 1512/1612 33012KT 9999 SCT030
TEMPO 1512/1516 34015G27KT 8000 SHRA BKN011
PROB30
TEMPO 1516/1521 34015G25KT BKN014
ATIS : +44 1582 395 204
No reported NOTAMs for that airfield.



MET'MAP, your aeronautical weather chart ! - Copyright ORBIFLY December 2007 - Disclaimer

ORBIFLY MET'MAP TEAM :

Programming & Development : Alexandra Zaïnal
Concept & Development : Baudouin d'Aumeries
Co-Development & Prog : Marc-Olivier Méhu
Technical & hardware support : Manuel Goepfert

Contact : metmap@orbifly.com




SOURCES & CREDITS :

   NOAA